Time;durP1;ratioP1;P1;durP2;ratioP2;P2;SDS_P1;SDS_P2;PMS_P1;PMS_P2;Temp;Humidity;BMP_temperature;BMP_pressure;BME280_temperature;BME280_humidity;BME280_pressure;Samples;Min_cycle;Max_cycle;Signal;HPM_P1;HPM_P2
2022/12/13 00:00:00;;;;;;;6.13;4.20;;;;;;;12.95;67.04;101070.78;5037328;28;20132;-63
2022/12/13 00:02:25;;;;;;;6.90;4.53;;;;;;;12.93;67.04;101070.19;5036843;28;20122;-63
2022/12/13 00:04:51;;;;;;;7.07;4.30;;;;;;;12.93;67.18;101072.91;5036960;28;20036;-63
2022/12/13 00:07:16;;;;;;;6.30;4.30;;;;;;;12.93;67.16;101072.91;5037274;28;20037;-63
2022/12/13 00:09:42;;;;;;;7.83;4.53;;;;;;;12.93;67.04;101070.19;5037249;28;20037;-63
2022/12/13 00:12:07;;;;;;;5.83;4.47;;;;;;;12.91;67.17;101066.84;5037691;28;20047;-63
2022/12/13 00:14:33;;;;;;;5.33;3.90;;;;;;;12.93;67.20;101063.91;5037293;28;20037;-63
2022/12/13 00:16:58;;;;;;;7.00;4.70;;;;;;;12.90;67.14;101067.91;5037215;28;20103;-63
2022/12/13 00:19:23;;;;;;;5.43;4.30;;;;;;;12.92;67.25;101057.66;5037472;28;20044;-63
2022/12/13 00:21:49;;;;;;;5.80;4.83;;;;;;;12.90;67.21;101059.75;5037009;28;20044;-64
2022/12/13 00:24:14;;;;;;;6.13;4.50;;;;;;;12.89;67.20;101059.97;5036902;28;20041;-63
2022/12/13 00:26:40;;;;;;;8.00;5.00;;;;;;;12.89;67.38;101058.09;5037147;28;20036;-63
2022/12/13 00:29:07;;;;;;;5.50;4.30;;;;;;;12.87;67.01;101057.47;5036861;28;20041;-63
2022/12/13 00:31:33;;;;;;;6.83;4.20;;;;;;;12.89;67.13;101058.09;5036997;28;20063;-63
2022/12/13 00:33:59;;;;;;;6.63;4.90;;;;;;;12.88;67.12;101064.59;5037162;28;20940;-63
2022/12/13 00:36:25;;;;;;;6.50;4.40;;;;;;;12.86;67.37;101063.97;5036640;28;20488;-63
2022/12/13 00:38:59;;;;;;;5.80;4.80;;;;;;;12.87;67.33;101062.91;5036362;28;20037;-63
2022/12/13 00:41:27;;;;;;;6.05;4.63;;;;;;;12.86;67.30;101057.72;5036826;28;20051;-63
2022/12/13 00:43:52;;;;;;;6.57;4.40;;;;;;;12.86;67.30;101053.09;5036686;28;20480;-63
2022/12/13 00:46:21;;;;;;;5.23;4.30;;;;;;;12.84;67.43;101052.50;5036679;28;20044;-63
2022/12/13 00:48:51;;;;;;;6.37;4.33;;;;;;;12.83;67.52;101057.09;5036778;28;20044;-63
2022/12/13 00:51:18;;;;;;;6.37;4.47;;;;;;;12.84;67.21;101049.78;5017452;28;20491;-63
2022/12/13 00:53:43;;;;;;;5.47;4.10;;;;;;;12.82;67.27;101044.56;5035920;28;20040;-63
2022/12/13 00:56:11;;;;;;;6.23;4.53;;;;;;;12.84;67.26;101055.22;5035767;28;20040;-63
2022/12/13 00:58:36;;;;;;;5.23;4.20;;;;;;;12.84;67.39;101049.78;5035889;28;20041;-63
2022/12/13 01:01:03;;;;;;;6.67;4.40;;;;;;;12.83;67.41;101045.38;5036147;28;20044;-63
2022/12/13 01:03:29;;;;;;;6.07;4.50;;;;;;;12.81;67.49;101047.47;5036313;28;20024;-63
2022/12/13 01:05:54;;;;;;;6.37;4.70;;;;;;;12.82;67.40;101050.00;5035712;28;20681;-63
2022/12/13 01:08:19;;;;;;;5.73;4.43;;;;;;;12.82;67.58;101051.88;5035630;28;20060;-63
2022/12/13 01:10:46;;;;;;;7.83;4.47;;;;;;;12.82;67.35;101055.44;5036260;28;20139;-63
2022/12/13 01:13:13;;;;;;;6.70;4.80;;;;;;;12.81;67.36;101055.63;5036236;28;20142;-63
2022/12/13 01:15:43;;;;;;;6.57;4.80;;;;;;;12.81;67.71;101047.47;5036349;28;20059;-63
2022/12/13 01:18:09;;;;;;;5.00;4.50;;;;;;;12.81;67.53;101042.03;5036201;28;20037;-63
2022/12/13 01:20:34;;;;;;;5.67;4.60;;;;;;;12.81;67.77;101034.72;5035640;28;20637;-63
2022/12/13 01:23:00;;;;;;;5.23;4.40;;;;;;;12.80;67.47;101043.13;5036304;28;20475;-63
2022/12/13 01:25:25;;;;;;;5.50;4.60;;;;;;;12.80;67.58;101045.84;5036157;28;20076;-63
2022/12/13 01:27:50;;;;;;;6.17;4.80;;;;;;;12.79;67.76;101044.97;5035844;28;20487;-63
2022/12/13 01:30:16;;;;;;;6.50;4.63;;;;;;;12.79;67.63;101044.16;5036086;28;20534;-63
2022/12/13 01:32:41;;;;;;;5.13;4.50;;;;;;;12.77;67.67;101040.81;5036016;28;20102;-63
2022/12/13 01:35:07;;;;;;;7.23;4.77;;;;;;;12.76;67.78;101045.44;5035966;28;20040;-63
2022/12/13 01:37:32;;;;;;;5.67;4.40;;;;;;;12.75;67.67;101043.75;5035862;28;20484;-63
2022/12/13 01:39:57;;;;;;;5.30;4.40;;;;;;;12.78;67.84;101050.66;5035799;28;20061;-63
2022/12/13 01:42:23;;;;;;;5.60;4.30;;;;;;;12.79;67.82;101052.31;5035782;28;20041;-63
2022/12/13 01:44:57;;;;;;;5.60;4.57;;;;;;;12.78;67.89;101047.94;5035434;28;20033;-63
2022/12/13 01:47:52;;;;;;;6.00;4.32;;;;;;;12.80;68.88;101046.66;5035553;28;20032;-63
2022/12/13 01:50:22;;;;;;;6.00;4.53;;;;;;;12.79;67.75;101046.88;5031630;28;20100;-63
2022/12/13 01:52:49;;;;;;;5.97;4.43;;;;;;;12.77;67.89;101049.81;5034726;28;20553;-63
2022/12/13 01:55:17;;;;;;;6.87;4.87;;;;;;;12.76;67.92;101052.78;5034585;28;20039;-63
2022/12/13 01:57:46;;;;;;;5.50;4.63;;;;;;;12.77;67.77;101051.69;5033734;28;20021;-63
2022/12/13 02:00:12;;;;;;;6.33;4.47;;;;;;;12.76;67.80;101047.34;5034619;28;20449;-63
2022/12/13 02:02:38;;;;;;;5.30;4.57;;;;;;;12.74;67.96;101039.41;5033619;28;20033;-63
2022/12/13 02:05:14;;;;;;;4.77;4.23;;;;;;;12.75;68.42;101051.91;5034327;28;20040;-63
2022/12/13 02:07:42;;;;;;;6.33;4.53;;;;;;;12.75;68.02;101048.38;5033183;28;20047;-63
2022/12/13 02:10:08;;;;;;;5.00;4.23;;;;;;;12.74;68.13;101052.13;5034687;28;20032;-63
2022/12/13 02:12:36;;;;;;;5.83;4.70;;;;;;;12.71;68.05;101050.69;5033699;28;20121;-63
2022/12/13 02:15:06;;;;;;;5.20;4.70;;;;;;;12.74;68.37;101046.72;5034601;28;20108;-64
2022/12/13 02:18:09;;;;;;;6.60;4.67;;;;;;;12.76;68.99;101039.19;5034528;28;20029;-63
2022/12/13 02:21:00;;;;;;;6.07;4.70;;;;;;;12.76;68.99;101045.44;5033584;28;20067;-63
2022/12/13 02:23:35;;;;;;;5.43;4.43;;;;;;;12.72;68.45;101048.81;5034892;28;21735;-63
2022/12/13 02:26:18;;;;;;;6.40;4.40;;;;;;;12.72;68.61;101043.41;5032917;28;20032;-63
2022/12/13 02:29:14;;;;;;;5.23;4.60;;;;;;;12.74;68.82;101049.44;5033612;28;20147;-63
2022/12/13 02:31:54;;;;;;;7.43;4.70;;;;;;;12.72;68.70;101036.06;5034034;28;21672;-63
2022/12/13 02:34:25;;;;;;;5.87;4.53;;;;;;;12.71;68.58;101036.28;5023025;28;20120;-63
2022/12/13 02:36:58;;;;;;;7.00;4.70;;;;;;;12.66;68.45;101040.50;5026390;28;20021;-63
2022/12/13 02:39:47;;;;;;;6.40;4.73;;;;;;;12.71;69.20;101039.00;5028666;28;20502;-63
2022/12/13 02:42:37;;;;;;;5.00;4.37;;;;;;;12.70;68.92;101038.19;5034732;28;20041;-63
2022/12/13 02:45:22;;;;;;;5.63;4.73;;;;;;;12.68;68.45;101034.00;5035444;28;20124;-63
2022/12/13 02:47:48;;;;;;;;;;;;;;;12.77;70.79;101032.66;5035231;28;20036;-63
2022/12/13 02:50:14;;;;;;;6.20;4.40;;;;;;;12.65;68.61;101030.66;5035378;28;19939;-63
2022/12/13 02:52:42;;;;;;;6.50;4.50;;;;;;;12.66;68.52;101031.50;5035268;28;20032;-63
2022/12/13 02:55:11;;;;;;;4.90;4.43;;;;;;;12.62;68.48;101022.97;5035179;28;20526;-63
2022/12/13 02:57:39;;;;;;;5.93;4.67;;;;;;;12.64;68.60;101029.00;5034868;28;20070;-63
2022/12/13 03:00:05;;;;;;;6.60;4.67;;;;;;;12.63;68.49;101015.63;5035311;28;20925;-63
2022/12/13 03:02:43;;;;;;;5.17;4.60;;;;;;;12.66;69.01;101012.47;5034814;28;20031;-63
2022/12/13 03:08:24;;;;;;;7.70;4.43;;;;;;;12.64;69.10;101009.97;5027551;28;21761;-63
2022/12/13 03:11:02;;;;;;;6.27;4.50;;;;;;;12.62;68.50;101006.66;5034358;28;20060;-63
2022/12/13 03:13:49;;;;;;;7.80;4.80;;;;;;;12.64;69.03;101007.25;5030035;28;20074;-63
2022/12/13 03:16:39;;;;;;;6.60;4.90;;;;;;;12.62;68.62;101008.53;5037062;28;20127;-63
2022/12/13 03:24:20;;;;;;;5.70;4.90;;;;;;;12.56;68.78;101004.81;5543897;22;20032;31
2022/12/13 03:26:47;;;;;;;5.60;4.60;;;;;;;12.58;68.48;101007.31;5016976;23;20053;-64
2022/12/13 03:29:12;;;;;;;5.97;4.83;;;;;;;12.57;68.59;101006.47;5017097;28;20210;-63
2022/12/13 03:31:38;;;;;;;5.87;4.70;;;;;;;12.58;68.56;101001.88;5016514;28;20503;-64
2022/12/13 03:34:03;;;;;;;6.23;4.63;;;;;;;12.57;68.48;101011.91;5016361;28;20848;-64
2022/12/13 03:36:29;;;;;;;5.23;4.70;;;;;;;12.56;68.45;101015.69;5016048;28;20037;-64
2022/12/13 03:38:55;;;;;;;6.17;4.90;;;;;;;12.57;68.58;101011.91;5016526;28;21438;-64
2022/12/13 03:41:30;;;;;;;7.73;5.10;;;;;;;12.55;68.44;101019.47;5016424;28;21418;-64
2022/12/13 03:43:55;;;;;;;7.70;4.90;;;;;;;12.57;68.66;101016.53;5016794;28;20027;-64
2022/12/13 03:46:21;;;;;;;5.93;4.63;;;;;;;12.58;68.50;101018.16;5015728;28;20199;-64
2022/12/13 03:48:46;;;;;;;8.20;5.00;;;;;;;12.56;68.63;101006.72;5016510;28;20072;-64
2022/12/13 03:51:11;;;;;;;5.60;4.87;;;;;;;12.56;68.43;101012.97;5015583;28;20033;-64
2022/12/13 03:53:37;;;;;;;8.00;5.00;;;;;;;12.56;68.66;101007.53;5016432;28;20029;-64
2022/12/13 03:56:05;;;;;;;4.90;4.33;;;;;;;12.54;68.75;101012.38;5015650;28;20068;-64
2022/12/13 03:58:31;;;;;;;6.63;4.70;;;;;;;12.55;68.57;101015.91;5015735;28;20396;-64
2022/12/13 04:00:57;;;;;;;5.57;4.60;;;;;;;12.54;68.78;101006.06;5016484;28;20064;-64
2022/12/13 04:03:22;;;;;;;5.63;4.47;;;;;;;12.52;68.75;101005.47;5015469;28;20128;-64
2022/12/13 04:05:47;;;;;;;6.27;4.80;;;;;;;12.54;68.77;101006.94;5016540;28;20037;-64
2022/12/13 04:08:13;;;;;;;5.53;4.57;;;;;;;12.54;68.72;100998.78;5015037;28;20036;-64
2022/12/13 04:10:38;;;;;;;6.57;4.90;;;;;;;12.51;68.61;101007.34;5016146;28;20033;-64
2022/12/13 04:15:47;;;;;;;6.13;4.65;;;;;;;12.50;68.76;101006.53;5016123;28;20048;-64
2022/12/13 04:18:15;;;;;;;6.17;4.80;;;;;;;12.49;68.75;101009.47;5015995;28;20064;-64
2022/12/13 04:20:41;;;;;;;5.63;4.43;;;;;;;12.50;68.63;101000.28;5015584;28;20041;-64
2022/12/13 04:23:06;;;;;;;5.43;4.50;;;;;;;12.49;69.04;100999.41;5015856;28;20041;-64
2022/12/13 04:25:31;;;;;;;7.63;4.83;;;;;;;12.50;68.89;100994.84;5000323;28;20065;-64
2022/12/13 04:27:57;;;;;;;6.23;5.00;;;;;;;12.47;68.83;100989.81;4986437;28;20038;-64
2022/12/13 04:30:22;;;;;;;6.63;4.97;;;;;;;12.50;69.00;100987.50;4986529;28;20042;-64
2022/12/13 04:32:47;;;;;;;6.10;4.77;;;;;;;12.49;68.77;100995.88;4986369;28;20048;-64
2022/12/13 04:35:13;;;;;;;7.43;5.00;;;;;;;12.50;68.85;100983.97;4986701;28;20599;-64
2022/12/13 04:37:38;;;;;;;5.87;4.97;;;;;;;12.48;68.77;100991.50;4986521;28;20058;-64
2022/12/13 04:40:04;;;;;;;5.77;5.07;;;;;;;12.48;68.70;100995.06;4985894;28;20064;-64
2022/12/13 04:42:30;;;;;;;6.23;4.80;;;;;;;12.48;68.78;100981.47;4986442;28;20048;-64
2022/12/13 04:44:55;;;;;;;5.93;4.87;;;;;;;12.47;68.95;100987.97;4986290;28;20057;-64
2022/12/13 04:47:21;;;;;;;6.87;4.83;;;;;;;12.47;68.88;100981.66;4986280;28;20042;-64
2022/12/13 04:49:46;;;;;;;5.50;4.60;;;;;;;12.47;68.85;100979.81;4985686;28;20042;-64
2022/12/13 04:52:12;;;;;;;6.97;4.80;;;;;;;12.48;68.87;100983.34;4985812;28;20042;-64
2022/12/13 04:54:37;;;;;;;5.90;4.60;;;;;;;12.47;68.83;100979.81;4985982;28;20034;-64
2022/12/13 04:57:09;;;;;;;6.57;4.90;;;;;;;12.48;68.84;100986.06;4985775;28;20424;-64
2022/12/13 04:59:35;;;;;;;6.03;4.83;;;;;;;12.45;69.04;100990.03;4986430;28;20034;-64
2022/12/13 05:02:01;;;;;;;6.13;4.60;;;;;;;12.43;68.69;100983.16;4986123;28;20034;-64
2022/12/13 05:04:26;;;;;;;5.17;4.67;;;;;;;12.44;69.03;100990.28;4986165;28;20053;-63
2022/12/13 05:06:52;;;;;;;5.70;4.70;;;;;;;12.42;68.79;100982.34;4985901;28;20527;-64
2022/12/13 05:09:17;;;;;;;6.03;4.60;;;;;;;12.43;68.70;100980.44;4986146;28;20064;-64
2022/12/13 05:11:42;;;;;;;5.77;4.70;;;;;;;12.44;68.81;100979.41;4985652;28;20037;-64
2022/12/13 05:14:08;;;;;;;6.70;4.73;;;;;;;12.43;68.56;100972.28;4985830;28;20206;-64
2022/12/13 05:16:33;;;;;;;5.23;4.67;;;;;;;12.43;68.79;100972.28;4986336;28;20057;-64
2022/12/13 05:18:58;;;;;;;6.07;4.83;;;;;;;12.43;68.61;100975.00;4985532;28;20034;-64
2022/12/13 05:21:24;;;;;;;4.93;4.40;;;;;;;12.42;68.61;100976.09;4986105;28;20078;-64
2022/12/13 05:23:49;;;;;;;5.57;4.70;;;;;;;12.41;68.62;100972.53;4985957;28;20117;-64
2022/12/13 05:26:14;;;;;;;5.37;4.50;;;;;;;12.40;68.54;100973.59;4985084;28;20054;-64
2022/12/13 05:28:40;;;;;;;5.77;4.87;;;;;;;12.41;68.67;100974.41;4985402;28;20044;-64
2022/12/13 05:31:08;;;;;;;6.90;5.10;;;;;;;12.40;68.80;100961.88;4985742;28;20120;-64
2022/12/13 05:33:33;;;;;;;5.93;4.67;;;;;;;12.39;68.80;100962.91;4985308;28;20874;-64
2022/12/13 05:35:58;;;;;;;5.27;4.60;;;;;;;12.40;68.70;100961.88;4985462;28;20041;-64
2022/12/13 05:38:24;;;;;;;5.53;4.73;;;;;;;12.39;68.92;100965.63;4985199;28;20030;-64
2022/12/13 05:40:49;;;;;;;7.20;4.80;;;;;;;12.39;68.77;100960.22;4984582;28;20030;-64
2022/12/13 05:43:15;;;;;;;6.30;5.07;;;;;;;12.37;68.81;100956.91;4985364;28;20101;-64
2022/12/13 05:45:40;;;;;;;6.17;4.80;;;;;;;12.38;68.60;100958.56;4985285;28;20030;-64
2022/12/13 05:48:05;;;;;;;5.93;4.70;;;;;;;12.37;68.71;100952.28;4984930;28;20437;-64
2022/12/13 05:50:31;;;;;;;6.33;4.80;;;;;;;12.36;68.59;100950.59;4985282;28;20375;-64
2022/12/13 05:52:56;;;;;;;6.43;4.83;;;;;;;12.37;68.66;100946.03;4985642;28;20144;-64
2022/12/13 05:55:21;;;;;;;5.30;4.53;;;;;;;12.36;68.61;100944.34;4984998;28;20038;-64
2022/12/13 05:57:47;;;;;;;5.43;4.60;;;;;;;12.37;68.58;100941.41;4985496;28;20591;-64
2022/12/13 06:00:13;;;;;;;5.60;4.80;;;;;;;12.34;68.66;100939.16;4985110;28;20037;-64
2022/12/13 06:02:40;;;;;;;6.20;4.70;;;;;;;12.35;68.64;100945.41;4984642;28;20633;-64
2022/12/13 06:05:06;;;;;;;6.10;4.70;;;;;;;12.33;68.62;100946.47;4984885;28;20034;-64
2022/12/13 06:07:32;;;;;;;5.77;4.57;;;;;;;12.33;68.72;100946.47;4985428;28;20089;-64
2022/12/13 06:09:57;;;;;;;5.43;4.80;;;;;;;12.32;68.69;100954.81;4984859;28;20133;-64
2022/12/13 06:12:23;;;;;;;5.57;4.70;;;;;;;12.32;68.61;100947.53;4985159;28;20034;-64
2022/12/13 06:14:49;;;;;;;6.00;5.03;;;;;;;12.31;68.52;100943.13;4985795;28;20791;-64
2022/12/13 06:17:14;;;;;;;5.60;4.63;;;;;;;12.31;68.60;100945.03;4984445;28;20065;-64
2022/12/13 06:19:39;;;;;;;5.77;4.90;;;;;;;12.31;68.68;100950.47;4984907;28;20034;-64
2022/12/13 06:22:05;;;;;;;6.47;5.27;;;;;;;12.30;68.81;100949.63;4985196;28;20038;-64
2022/12/13 06:24:30;;;;;;;5.80;4.60;;;;;;;12.30;68.78;100955.03;4984315;28;20034;-64
2022/12/13 06:26:55;;;;;;;6.53;4.67;;;;;;;12.29;68.58;100950.69;4984654;28;20042;-64
2022/12/13 06:29:22;;;;;;;5.70;4.73;;;;;;;12.29;68.63;100950.69;4984921;28;20501;-64
2022/12/13 06:31:50;;;;;;;6.20;5.20;;;;;;;12.26;68.63;100951.09;4984763;28;20041;-64
2022/12/13 06:34:16;;;;;;;6.43;4.57;;;;;;;12.28;68.55;100948.16;4984811;28;20118;-64
2022/12/13 06:36:41;;;;;;;9.27;5.20;;;;;;;12.26;68.58;100948.38;4984866;28;20040;-64
2022/12/13 06:39:07;;;;;;;6.33;4.90;;;;;;;12.29;68.75;100949.84;4984886;28;20120;-64
2022/12/13 06:41:32;;;;;;;6.80;5.10;;;;;;;12.26;68.56;100958.44;4985015;28;20081;-64
2022/12/13 06:43:58;;;;;;;6.57;5.00;;;;;;;12.26;68.52;100956.53;4985069;28;20129;-64
2022/12/13 06:46:24;;;;;;;6.53;5.23;;;;;;;12.26;68.82;100955.72;4984480;28;20030;-64
2022/12/13 06:48:50;;;;;;;5.73;4.50;;;;;;;12.26;68.60;100959.25;4984815;28;20401;-64
2022/12/13 06:51:16;;;;;;;5.97;4.90;;;;;;;12.24;68.57;100958.66;4988682;28;20030;-64
2022/12/13 06:53:41;;;;;;;5.20;4.70;;;;;;;12.23;68.57;100951.56;4988628;28;20048;-64
2022/12/13 06:56:10;;;;;;;6.50;5.00;;;;;;;12.25;68.52;100954.03;4988700;28;20892;-64
2022/12/13 06:58:36;;;;;;;7.60;5.10;;;;;;;12.23;68.52;100951.56;4988559;28;20025;-64
2022/12/13 07:01:03;;;;;;;6.83;5.33;;;;;;;12.23;68.88;100951.56;4987797;28;20040;-64
2022/12/13 07:03:29;;;;;;;7.00;4.87;;;;;;;12.22;68.59;100958.03;4988270;28;20069;-64
2022/12/13 07:05:55;;;;;;;5.60;4.70;;;;;;;12.24;68.80;100952.38;4988746;28;21461;-64
2022/12/13 07:08:20;;;;;;;6.40;4.97;;;;;;;12.25;68.94;100954.91;4987886;28;20473;-64
2022/12/13 07:10:45;;;;;;;7.47;5.17;;;;;;;12.31;69.22;100954.00;4988096;28;20124;-64
2022/12/13 07:13:11;;;;;;;7.60;4.77;;;;;;;12.32;68.86;100954.81;4988263;28;20034;-63
2022/12/13 07:15:36;;;;;;;12.33;7.73;;;;;;;12.01;64.24;100963.81;4987516;28;20131;-64
2022/12/13 07:18:02;;;;;;;19.80;12.77;;;;;;;11.32;56.44;100961.63;4988544;28;20033;-64
2022/12/13 07:20:27;;;;;;;21.53;13.70;;;;;;;11.19;54.35;100959.75;4988998;28;21083;-64
2022/12/13 07:22:55;;;;;;;20.37;13.43;;;;;;;11.30;54.41;100956.41;4969730;28;20041;-64
2022/12/13 07:25:21;;;;;;;19.93;13.07;;;;;;;11.41;55.12;100956.78;4987981;28;20366;-64
2022/12/13 07:27:46;;;;;;;17.30;11.73;;;;;;;11.52;56.70;100956.13;4988535;28;20029;-64
2022/12/13 07:30:12;;;;;;;16.70;11.23;;;;;;;11.62;57.91;100956.47;4988544;28;20037;-64
2022/12/13 07:32:37;;;;;;;17.13;11.50;;;;;;;11.72;58.21;100966.03;4988605;28;21665;-64
2022/12/13 07:35:02;;;;;;;14.23;10.07;;;;;;;11.77;58.79;100966.22;4988842;28;20077;-64
2022/12/13 07:37:28;;;;;;;16.93;10.27;;;;;;;11.85;59.10;100960.53;4988501;28;20156;-64
2022/12/13 07:39:53;;;;;;;14.77;9.60;;;;;;;11.92;59.48;100966.75;4988604;28;20034;-64
2022/12/13 07:42:18;;;;;;;14.50;9.60;;;;;;;11.97;59.79;100964.25;4988526;28;20477;-64
2022/12/13 07:44:44;;;;;;;13.60;8.50;;;;;;;12.04;59.96;100963.41;4988340;28;20092;-64
2022/12/13 07:47:09;;;;;;;13.33;8.90;;;;;;;12.09;60.31;100958.13;4988177;28;20153;-64
2022/12/13 07:49:34;;;;;;;12.93;8.40;;;;;;;12.08;60.55;100954.59;4988055;28;20033;-64
2022/12/13 07:52:00;;;;;;;12.47;8.20;;;;;;;12.17;60.50;100960.56;4986974;28;20096;-64
2022/12/13 07:54:25;;;;;;;11.30;8.00;;;;;;;12.24;60.68;100963.25;4987603;28;20029;-64
2022/12/13 07:56:50;;;;;;;13.47;8.80;;;;;;;12.26;60.81;100975.56;4988255;28;20034;-64
2022/12/13 07:59:16;;;;;;;12.77;8.70;;;;;;;12.27;60.82;100973.69;4988234;28;20121;-64
2022/12/13 08:01:41;;;;;;;13.37;7.93;;;;;;;12.32;60.97;100976.56;4986453;28;20038;-64
2022/12/13 08:04:06;;;;;;;12.67;8.40;;;;;;;12.33;60.84;100972.78;4988781;28;20033;-64
2022/12/13 08:06:37;;;;;;;10.83;7.57;;;;;;;12.39;60.94;100973.78;4987486;28;20034;-64
2022/12/13 08:09:04;;;;;;;11.23;7.53;;;;;;;12.45;60.92;100978.34;4987972;28;20042;-64
2022/12/13 08:11:30;;;;;;;11.00;7.00;;;;;;;12.49;60.99;100976.84;4988163;28;20038;-64
2022/12/13 08:13:55;;;;;;;9.57;7.00;;;;;;;12.50;60.92;100973.91;4987647;28;20144;-64
2022/12/13 08:16:21;;;;;;;9.40;6.63;;;;;;;12.55;61.14;100973.28;4988058;28;20037;-64
2022/12/13 08:18:46;;;;;;;10.00;6.77;;;;;;;12.60;61.02;100970.69;4988644;28;20037;-64
2022/12/13 08:21:12;;;;;;;9.33;6.67;;;;;;;12.64;61.00;100973.81;4970027;28;20072;-64
2022/12/13 08:23:37;;;;;;;9.53;6.73;;;;;;;12.66;60.78;100977.13;4987975;28;20385;-64
2022/12/13 08:26:04;;;;;;;9.13;6.30;;;;;;;12.72;60.81;100975.44;4987255;28;20058;-64
2022/12/13 08:28:31;;;;;;;8.53;6.10;;;;;;;12.74;60.96;100971.44;4987266;28;20035;-64
2022/12/13 08:31:10;;;;;;;11.17;6.40;;;;;;;12.78;61.30;100979.94;4987486;28;20060;-64
2022/12/13 08:33:35;;;;;;;10.63;6.50;;;;;;;12.77;60.89;100976.41;4988094;28;20040;-64
2022/12/13 08:36:14;;;;;;;7.93;6.47;;;;;;;12.83;61.17;100982.84;4986801;28;20038;-64
2022/12/13 08:38:39;;;;;;;8.93;6.40;;;;;;;12.88;60.71;100983.00;4987790;28;20022;-64
2022/12/13 08:41:05;;;;;;;8.37;6.43;;;;;;;12.91;60.76;100990.72;4987792;28;20080;-64
2022/12/13 08:43:31;;;;;;;10.47;6.20;;;;;;;12.86;60.75;100982.38;4987326;28;20429;-64
2022/12/13 08:45:56;;;;;;;9.13;6.77;;;;;;;12.87;60.79;100981.34;4987535;28;20121;-64
2022/12/13 08:48:22;;;;;;;9.63;6.27;;;;;;;12.92;60.87;100976.06;4987196;28;20041;-64
2022/12/13 08:50:47;;;;;;;8.63;5.97;;;;;;;12.95;60.87;100986.50;4986371;28;20057;-64
2022/12/13 08:53:13;;;;;;;8.80;5.83;;;;;;;12.92;60.68;100996.97;4986467;28;20118;-64
2022/12/13 08:55:38;;;;;;;8.73;6.00;;;;;;;12.94;60.92;100990.25;4986726;28;20025;-64
2022/12/13 08:58:07;;;;;;;7.70;6.00;;;;;;;12.97;60.70;101000.72;4985943;28;21595;-64
2022/12/13 09:00:33;;;;;;;9.37;5.77;;;;;;;13.00;60.74;101002.13;4986651;28;20041;-64
2022/12/13 09:02:59;;;;;;;8.17;5.93;;;;;;;13.00;60.63;101007.56;4986384;28;20087;-64
2022/12/13 09:05:24;;;;;;;9.10;5.83;;;;;;;13.01;60.83;101011.94;4985726;28;20046;-64
2022/12/13 09:07:57;;;;;;;8.43;5.53;;;;;;;13.03;60.69;100998.13;4986219;28;20066;-64
2022/12/13 09:10:22;;;;;;;7.90;5.83;;;;;;;13.08;60.61;101001.84;4986643;28;20034;-64
2022/12/13 09:12:48;;;;;;;8.23;5.80;;;;;;;13.04;60.55;100994.34;4985043;28;20030;-64
2022/12/13 09:15:13;;;;;;;8.00;5.50;;;;;;;13.02;60.58;100991.88;4985891;28;20038;-64
2022/12/13 09:17:39;;;;;;;6.90;5.60;;;;;;;13.06;60.77;100990.34;4968561;28;20034;-64
2022/12/13 09:20:10;;;;;;;8.37;5.53;;;;;;;13.13;60.63;100998.44;4985179;28;20132;-64
2022/12/13 09:22:36;;;;;;;8.23;6.13;;;;;;;13.10;60.70;100994.28;4986206;28;20038;-64
2022/12/13 09:25:02;;;;;;;7.47;5.73;;;;;;;13.08;60.60;100995.56;4986167;28;20057;-64
2022/12/13 09:27:29;;;;;;;8.87;5.77;;;;;;;13.11;60.64;101000.56;4985182;28;20057;-64
2022/12/13 09:29:54;;;;;;;8.30;5.87;;;;;;;13.14;60.58;101005.56;4985856;28;20042;-64
2022/12/13 09:32:20;;;;;;;7.93;5.73;;;;;;;13.10;60.67;100996.19;4985736;28;20088;-64
2022/12/13 09:34:46;;;;;;;7.63;5.37;;;;;;;13.08;60.55;101006.44;4985192;28;20545;-64
2022/12/13 09:37:12;;;;;;;8.67;5.43;;;;;;;13.07;60.84;101016.50;4985588;28;20044;-64
2022/12/13 09:39:38;;;;;;;6.77;5.43;;;;;;;13.10;60.95;101005.16;4985982;28;20033;-64
2022/12/13 09:42:05;;;;;;;9.17;5.67;;;;;;;13.08;60.63;101006.44;4985031;28;20263;-64
2022/12/13 09:44:37;;;;;;;7.17;5.43;;;;;;;13.03;60.83;101004.41;4985410;28;20041;-64
2022/12/13 09:47:06;;;;;;;8.60;5.27;;;;;;;13.05;60.78;101007.72;4985687;28;20037;-64
2022/12/13 09:49:40;;;;;;;7.37;5.50;;;;;;;13.05;61.20;101006.91;4985123;28;20030;-64
2022/12/13 09:52:13;;;;;;;8.32;5.75;;;;;;;13.00;61.03;101002.97;4985208;28;20088;-64
2022/12/13 09:54:39;;;;;;;8.53;5.80;;;;;;;12.99;60.97;100995.03;4985306;28;20034;-64
2022/12/13 09:57:18;;;;;;;6.43;5.30;;;;;;;12.99;61.52;100984.97;4985285;28;20030;-64
2022/12/13 09:59:44;;;;;;;7.60;5.27;;;;;;;12.95;61.28;100986.50;4985959;28;20882;-64
2022/12/13 10:02:19;;;;;;;6.97;5.30;;;;;;;12.97;61.55;100986.25;4986263;28;20089;-64
2022/12/13 10:04:44;;;;;;;7.43;5.50;;;;;;;12.96;61.13;100979.16;4985917;28;20115;-64
2022/12/13 10:07:19;;;;;;;7.83;5.63;;;;;;;12.95;61.64;100974.78;4986107;28;20042;-64
2022/12/13 10:09:44;;;;;;;7.03;5.22;;;;;;;12.93;61.31;100976.88;4985876;28;20091;-63
2022/12/13 10:12:14;;;;;;;7.87;5.37;;;;;;;12.95;61.29;100969.34;4985825;28;20041;-64
2022/12/13 10:14:46;;;;;;;6.90;5.50;;;;;;;12.93;61.16;100969.56;4986073;28;20038;-64
2022/12/13 10:17:18;;;;;;;6.37;5.00;;;;;;;12.91;61.24;100968.13;4986282;28;20019;-64
2022/12/13 10:19:46;;;;;;;6.90;5.40;;;;;;;12.90;61.41;100966.47;4985674;28;20033;-64
2022/12/13 10:22:15;;;;;;;6.93;5.40;;;;;;;12.93;61.54;100964.13;4986095;28;20040;-64
2022/12/13 10:25:04;;;;;;;7.87;5.37;;;;;;;12.93;61.61;100964.13;4989248;28;20030;-64
2022/12/13 10:27:45;;;;;;;8.20;5.40;;;;;;;12.94;61.75;100959.53;4989850;28;20069;-64
2022/12/13 10:30:16;;;;;;;6.13;5.00;;;;;;;12.93;61.59;100953.25;4989676;28;20474;-65
2022/12/13 10:32:55;;;;;;;6.97;5.10;;;;;;;12.90;61.35;100936.56;4988992;28;20030;-64
2022/12/13 10:35:26;;;;;;;7.37;5.50;;;;;;;12.88;61.49;100936.78;4989468;28;20048;-64
2022/12/13 10:37:53;;;;;;;7.23;5.67;;;;;;;12.86;61.53;100941.59;4988722;28;20017;-64
2022/12/13 10:40:36;;;;;;;6.93;5.23;;;;;;;12.90;62.03;100942.81;4988278;28;20065;-64
2022/12/13 10:43:14;;;;;;;7.20;4.90;;;;;;;12.90;61.87;100933.84;4988782;28;20037;-64
2022/12/13 10:45:41;;;;;;;6.80;5.20;;;;;;;12.91;61.29;100930.88;4988925;28;20084;-64
2022/12/13 10:48:20;;;;;;;7.17;5.40;;;;;;;12.89;61.98;100933.00;4987818;28;20052;-64
2022/12/13 10:50:59;;;;;;;7.07;5.43;;;;;;;12.90;62.13;100923.78;4988162;28;20046;-64
2022/12/13 10:53:30;;;;;;;9.20;5.00;;;;;;;12.93;61.60;100927.94;4980514;28;20524;-64
2022/12/13 10:55:56;;;;;;;6.67;5.00;;;;;;;12.90;61.77;100923.78;4989549;28;20651;-64
2022/12/13 10:58:22;;;;;;;7.60;5.30;;;;;;;12.89;61.73;100916.69;4988477;28;20049;-64
2022/12/13 11:00:48;;;;;;;6.80;5.30;;;;;;;12.89;61.83;100911.25;4988924;28;20081;-64
2022/12/13 11:03:31;;;;;;;7.40;5.10;;;;;;;12.94;62.30;100910.56;4987617;28;20034;-64
2022/12/13 11:06:14;;;;;;;7.07;5.20;;;;;;;12.94;62.46;100907.84;4971696;28;20123;-64
2022/12/13 11:08:40;;;;;;;7.73;4.80;;;;;;;12.90;61.63;100902.03;4987636;28;20034;-64
2022/12/13 11:11:07;;;;;;;7.40;5.50;;;;;;;12.91;61.56;100892.81;4989493;28;20083;-64
2022/12/13 11:13:39;;;;;;;6.93;5.20;;;;;;;12.91;61.67;100903.69;4989593;28;20042;-64
2022/12/13 11:16:28;;;;;;;6.63;5.33;;;;;;;12.95;62.47;100888.56;4988722;28;20030;-64
2022/12/13 11:18:58;;;;;;;7.47;5.53;;;;;;;12.93;61.46;100895.31;4988761;28;20494;-64
2022/12/13 11:21:35;;;;;;;6.73;5.17;;;;;;;12.95;62.01;100888.56;4989040;28;20110;-64
2022/12/13 11:24:04;;;;;;;5.90;5.00;;;;;;;12.92;61.34;100890.91;4989107;28;20041;-64
2022/12/13 11:26:33;;;;;;;6.70;5.27;;;;;;;12.92;61.60;100888.19;4988307;28;20774;-64
2022/12/13 11:29:19;;;;;;;7.53;5.40;;;;;;;12.94;61.47;100884.19;4988822;28;20077;-64
2022/12/13 11:31:52;;;;;;;7.30;5.10;;;;;;;12.94;61.67;100881.47;4942663;28;20105;-64
2022/12/13 11:34:32;;;;;;;7.88;5.38;;;;;;;12.96;62.02;100884.81;4988599;28;20030;-64
2022/12/13 11:37:14;;;;;;;7.47;5.23;;;;;;;12.96;61.86;100884.81;4987954;28;20714;-64
2022/12/13 11:39:46;;;;;;;7.00;5.23;;;;;;;12.92;61.24;100886.31;4988638;28;20033;-64